Mackinac Island, MI (49757)

1:03 PM EST on February 11, 2016 (GMT -0500)
KMIMACKI2 | | Change Station
CLOSE
Current Station
Personal Weather Station
Location: Mackinac Island, MI
Elevation: 594 ft
Nearby Weather Stations

Elev 594 ft 45.85 °N, 84.62 °W | Updated 7 minutes ago

Clear
Clear
10.5 °F
Feels Like 2 °F
N
5.0
Wind Variable Wind from SW

Today
High -- | Low -- °F
--% Chance of Precip.
Yesterday
High -- | Low -- °F
Precip. -- in
Pressure 30.14 in
Visibility 10.0 miles
Clouds Clear
Windchill 2 °F
Dew Point 5 °F
Humidity 79%
Rainfall 0.00 in
Snow Depth Not available.
7:47 AM 5:58 PM
Waxing Crescent, 13% visible
METAR KMCD 111756Z AUTO 21005KT 10SM CLR M12/M17 A3014 RMK AO2 T11251172 11118 21175
Pressure 30.14 in
Visibility 10.0 miles
Clouds Clear
Windchill 2 °F
Dew Point 5 °F
Humidity 79%
Rainfall 0.00 in
Snow Depth Not available.
7:47 AM 5:58 PM
Waxing Crescent, 13% visible
METAR KMCD 111756Z AUTO 21005KT 10SM CLR M12/M17 A3014 RMK AO2 T11251172 11118 21175

10-Day Weather Forecast

Almanac

Astronomy

Feb. 11, 2016 Rise Set
Actual Time
Civil Twilight
Nautical Twilight
Astronomical Twilight
Moon
Length of Visible Light
Length of Day
Tomorrow will be .
, % of the Moon is Illuminated

Today's Extremes

State Highs State Lows

Community

WunderPhotos

Upload Photos

1,892,121 photos uploaded!

WunderBlog® & News

Nearby

Air Quality

  Air Quality AQ Index Pollutant
Not available.

Snow Depth

Station Depth Elevation

Earthquake Activity

City Distance Mag. Time & Date
Minimum magnitude displayed is 2.5.

Coastal Water Temperatures

Place Temperature

Stations

Nearby Weather Stations

Station Location Temp. Windchill Dew Point Humidity Wind Precip. Elev Updated Type
                   

Watches & Warnings

There are currently no watches in effect.